Time;durP1;ratioP1;P1;durP2;ratioP2;P2;SDS_P1;SDS_P2;PMS_P1;PMS_P2;Temp;Humidity;BMP_temperature;BMP_pressure;BME280_temperature;BME280_humidity;BME280_pressure;Samples;Min_cycle;Max_cycle;Signal;HPM_P1;HPM_P2
2023/09/22 00:00:58;;;;;;;7.40;2.65;;;19.90;99.90;;;;;;2585831;54;20058;31
2023/09/22 00:03:34;;;;;;;5.88;2.83;;;19.90;99.90;;;;;;2604235;46;20043;31
2023/09/22 00:06:09;;;;;;;4.03;2.43;;;19.90;99.90;;;;;;2585656;54;21354;31
2023/09/22 00:08:45;;;;;;;4.50;3.20;;;19.80;99.90;;;;;;2604268;46;20081;31
2023/09/22 00:11:21;;;;;;;5.07;2.50;;;19.80;99.90;;;;;;2586071;54;20067;31
2023/09/22 00:14:00;;;;;;;7.30;2.20;;;19.80;99.90;;;;;;2586205;54;21550;31
2023/09/22 00:16:34;;;;;;;4.67;2.83;;;19.80;99.90;;;;;;2585906;54;20882;31
2023/09/22 00:19:11;;;;;;;4.45;2.60;;;19.80;99.90;;;;;;2754785;31;20452;31
2023/09/22 00:21:46;;;;;;;6.38;2.58;;;19.70;99.90;;;;;;2585415;54;20038;31
2023/09/22 00:24:25;;;;;;;6.32;2.85;;;19.70;99.90;;;;;;2585907;54;21254;31
2023/09/22 00:26:59;;;;;;;5.03;2.83;;;19.70;99.90;;;;;;2604570;46;20034;31
2023/09/22 00:29:33;;;;;;;5.23;2.33;;;19.70;99.90;;;;;;2585772;54;20760;31
2023/09/22 00:32:10;;;;;;;6.75;2.80;;;19.70;99.90;;;;;;2585731;54;20072;31
2023/09/22 00:34:47;;;;;;;5.35;2.80;;;19.70;99.90;;;;;;2585883;54;20997;31
2023/09/22 00:37:24;;;;;;;5.15;2.80;;;19.70;99.90;;;;;;2604667;46;20508;31
2023/09/22 00:39:56;;;;;;;6.80;2.53;;;19.70;99.90;;;;;;2683609;39;20468;31
2023/09/22 00:42:31;;;;;;;5.97;2.77;;;19.70;99.90;;;;;;2604020;46;20022;31
2023/09/22 00:45:17;;;;;;;3.88;2.88;;;19.70;99.90;;;;;;2585559;54;20022;31
2023/09/22 00:47:52;;;;;;;6.13;2.57;;;19.60;99.90;;;;;;2604159;46;20077;31
2023/09/22 00:50:31;;;;;;;6.87;2.60;;;19.60;99.90;;;;;;2585633;54;20999;31
2023/09/22 00:53:10;;;;;;;9.75;3.00;;;19.60;99.90;;;;;;2584763;54;21185;31
2023/09/22 00:55:45;;;;;;;8.47;2.70;;;19.60;99.90;;;;;;2585674;54;20034;31
2023/09/22 00:58:18;;;;;;;5.33;2.87;;;19.50;99.90;;;;;;2585697;54;20246;31
2023/09/22 01:00:53;;;;;;;6.82;2.47;;;19.50;99.90;;;;;;2584934;54;20061;31
2023/09/22 01:03:25;;;;;;;5.27;2.93;;;19.50;99.90;;;;;;2597496;47;20042;31
2023/09/22 01:06:02;;;;;;;4.47;2.60;;;19.40;99.90;;;;;;2585787;54;20112;31
2023/09/22 01:08:36;;;;;;;8.25;3.15;;;19.40;99.90;;;;;;2585979;54;20045;31
2023/09/22 01:11:14;;;;;;;6.38;2.85;;;19.40;99.90;;;;;;2585627;54;20150;31
2023/09/22 01:13:50;;;;;;;5.65;3.22;;;19.30;99.90;;;;;;2585666;54;20086;31
2023/09/22 01:16:23;;;;;;;;;;;19.30;99.90;;;;;;2586213;54;19957;31
2023/09/22 01:18:57;;;;;;;5.60;2.90;;;19.30;99.90;;;;;;2585736;54;20005;31
2023/09/22 01:21:34;;;;;;;6.85;3.22;;;19.20;99.90;;;;;;2585797;54;20256;31
2023/09/22 01:24:12;;;;;;;4.60;2.70;;;19.10;99.90;;;;;;2584975;54;20030;31
2023/09/22 01:26:44;;;;;;;9.90;3.25;;;19.10;99.90;;;;;;2585928;54;21208;31
2023/09/22 01:29:19;;;;;;;6.18;2.80;;;19.10;99.90;;;;;;2585769;54;20889;31
2023/09/22 01:31:51;;;;;;;6.13;2.92;;;19.00;99.90;;;;;;2585587;54;20037;31
2023/09/22 01:34:31;;;;;;;6.50;2.80;;;19.00;99.90;;;;;;2585008;54;20035;31
2023/09/22 01:37:07;;;;;;;9.17;3.00;;;19.00;99.90;;;;;;2585040;54;20063;31
2023/09/22 01:39:43;;;;;;;4.13;2.92;;;18.90;99.90;;;;;;2584654;54;20832;31
2023/09/22 01:42:17;;;;;;;6.35;3.30;;;18.80;99.90;;;;;;2604453;47;20053;31
2023/09/22 01:44:53;;;;;;;5.30;3.50;;;18.80;99.90;;;;;;2604860;46;20906;31
2023/09/22 01:47:26;;;;;;;6.10;3.42;;;18.80;99.90;;;;;;2586559;54;20886;31
2023/09/22 01:49:58;;;;;;;6.20;2.90;;;18.70;99.90;;;;;;2586021;54;20030;31
2023/09/22 01:52:37;;;;;;;4.93;3.35;;;18.60;99.90;;;;;;2586253;54;20857;31
2023/09/22 01:55:22;;;;;;;3.70;2.50;;;18.60;99.90;;;;;;2586692;54;20790;31
2023/09/22 01:57:59;;;;;;;6.80;3.30;;;18.60;99.90;;;;;;2605087;46;20920;31
2023/09/22 02:00:37;;;;;;;5.28;2.88;;;18.60;99.90;;;;;;2586613;54;20027;31
2023/09/22 02:03:14;;;;;;;4.33;2.80;;;18.60;99.90;;;;;;2586327;54;20788;31
2023/09/22 02:05:52;;;;;;;9.10;3.57;;;18.50;99.90;;;;;;2586197;54;20935;31
2023/09/22 02:08:33;;;;;;;6.60;2.70;;;18.50;99.90;;;;;;2683680;39;22397;31
2023/09/22 02:11:12;;;;;;;6.13;3.30;;;18.40;99.90;;;;;;2585407;54;20046;31
2023/09/22 02:13:47;;;;;;;6.65;3.50;;;18.40;99.90;;;;;;2586298;54;20815;31
2023/09/22 02:16:23;;;;;;;4.18;2.90;;;18.40;99.90;;;;;;2586417;54;20031;31
2023/09/22 02:18:56;;;;;;;9.10;3.53;;;18.30;99.90;;;;;;2586091;54;20042;31
2023/09/22 02:21:37;;;;;;;8.20;3.75;;;18.30;99.90;;;;;;2586686;54;20038;31
2023/09/22 02:24:13;;;;;;;9.27;3.60;;;18.30;99.90;;;;;;2586223;54;20817;31
2023/09/22 02:26:48;;;;;;;6.93;3.45;;;18.20;99.90;;;;;;2586043;54;20086;31
2023/09/22 02:29:27;;;;;;;5.45;3.05;;;18.20;99.90;;;;;;2586417;54;20023;31
2023/09/22 02:32:00;;;;;;;9.30;3.88;;;18.20;99.90;;;;;;2586150;54;20033;31
2023/09/22 02:34:36;;;;;;;5.65;3.45;;;18.20;99.90;;;;;;2601412;46;20999;31
2023/09/22 02:37:09;;;;;;;4.88;3.42;;;18.10;99.90;;;;;;2586456;54;20896;31
2023/09/22 02:39:47;;;;;;;6.85;3.15;;;18.10;99.90;;;;;;2604887;46;20049;31
2023/09/22 02:42:21;;;;;;;6.73;3.33;;;18.10;99.90;;;;;;2585558;54;20864;31
2023/09/22 02:44:54;;;;;;;7.68;3.00;;;18.10;99.90;;;;;;2586224;54;20911;31
2023/09/22 02:47:29;;;;;;;4.18;2.88;;;18.10;99.90;;;;;;2586212;54;20026;31
2023/09/22 02:50:04;;;;;;;8.47;3.47;;;18.00;99.90;;;;;;2604434;46;20819;31
2023/09/22 02:52:39;;;;;;;4.38;3.05;;;18.10;99.90;;;;;;2604427;46;20274;31
2023/09/22 02:55:19;;;;;;;6.35;3.25;;;18.10;99.90;;;;;;2585850;54;20085;31
2023/09/22 02:57:57;;;;;;;7.35;3.30;;;18.10;99.90;;;;;;2585552;54;20038;31
2023/09/22 03:00:33;;;;;;;5.20;3.25;;;18.10;99.90;;;;;;2585492;54;20524;31
2023/09/22 03:03:10;;;;;;;9.13;3.50;;;18.00;99.90;;;;;;2586083;54;20914;31
2023/09/22 03:05:46;;;;;;;5.60;2.90;;;18.00;99.90;;;;;;2684160;39;21990;31
2023/09/22 03:08:20;;;;;;;5.97;3.05;;;18.00;99.90;;;;;;2586240;54;20046;31
2023/09/22 03:10:58;;;;;;;7.10;3.67;;;18.00;99.90;;;;;;2586287;54;20027;31
2023/09/22 03:13:33;;;;;;;;;;;17.90;99.90;;;;;;2586263;54;24061;31
2023/09/22 03:16:08;;;;;;;5.10;3.40;;;18.00;99.90;;;;;;2604630;46;19934;31
2023/09/22 03:18:47;;;;;;;8.25;3.55;;;17.90;99.90;;;;;;2586163;54;21005;31
2023/09/22 03:21:22;;;;;;;7.18;3.33;;;17.90;99.90;;;;;;2586219;54;20814;31
2023/09/22 03:23:59;;;;;;;7.72;3.92;;;17.80;99.90;;;;;;2586159;54;20030;31
2023/09/22 03:26:38;;;;;;;7.38;3.53;;;17.90;99.90;;;;;;2585945;54;20855;31
2023/09/22 03:29:11;;;;;;;8.70;3.85;;;17.80;99.90;;;;;;2585967;54;20144;31
2023/09/22 03:31:45;;;;;;;5.20;2.97;;;17.80;99.90;;;;;;2603911;46;20968;31
2023/09/22 03:34:18;;;;;;;7.25;3.70;;;17.70;99.90;;;;;;2586311;54;20034;31
2023/09/22 03:36:54;;;;;;;6.35;2.70;;;17.80;99.90;;;;;;2586059;54;20055;31
2023/09/22 03:39:30;;;;;;;9.07;3.97;;;17.80;99.90;;;;;;2586186;54;20798;31
2023/09/22 03:42:06;;;;;;;;;;;17.70;99.90;;;;;;2586244;54;20980;31
2023/09/22 03:44:38;;;;;;;;;;;17.60;99.90;;;;;;2604830;46;19956;31
2023/09/22 03:47:14;;;;;;;4.20;2.85;;;17.60;99.90;;;;;;2585810;54;19937;31
2023/09/22 03:49:48;;;;;;;6.40;3.20;;;17.50;99.90;;;;;;2586071;54;20065;31
2023/09/22 03:52:24;;;;;;;7.45;3.60;;;17.50;99.90;;;;;;2585942;54;20903;31
2023/09/22 03:54:57;;;;;;;5.80;3.35;;;17.50;99.90;;;;;;2585939;54;20105;31
2023/09/22 03:57:35;;;;;;;5.00;3.35;;;17.50;99.90;;;;;;2586085;54;20026;31
2023/09/22 04:00:24;;;;;;;6.50;3.40;;;17.50;99.90;;;;;;2585982;54;20037;31
2023/09/22 04:03:03;;;;;;;8.65;3.72;;;17.40;99.90;;;;;;2585915;54;20965;31
2023/09/22 04:05:39;;;;;;;7.10;3.60;;;17.40;99.90;;;;;;2585240;54;20027;31
2023/09/22 04:08:13;;;;;;;5.35;3.40;;;17.40;99.90;;;;;;2586055;54;20914;31
2023/09/22 04:10:48;;;;;;;7.30;3.60;;;17.40;99.90;;;;;;2585612;54;20034;31
2023/09/22 04:13:27;;;;;;;6.50;3.78;;;17.40;99.90;;;;;;2585025;54;20052;31
2023/09/22 04:16:03;;;;;;;5.90;3.53;;;17.40;99.90;;;;;;2585979;54;20036;31
2023/09/22 04:18:37;;;;;;;8.68;3.15;;;17.40;99.90;;;;;;2586000;54;20038;31
2023/09/22 04:21:13;;;;;;;6.38;3.70;;;17.40;99.90;;;;;;2585239;54;20030;31
2023/09/22 04:23:57;;;;;;;6.90;3.60;;;17.40;99.90;;;;;;2585616;54;20027;31
2023/09/22 04:26:42;;;;;;;6.43;2.97;;;17.40;99.90;;;;;;2585965;54;21007;31
2023/09/22 04:29:21;;;;;;;4.10;2.85;;;17.30;99.90;;;;;;2586073;54;20030;31
2023/09/22 04:31:58;;;;;;;9.03;3.73;;;17.30;99.90;;;;;;2585910;54;20027;31
2023/09/22 04:34:35;;;;;;;7.10;3.23;;;17.30;99.90;;;;;;2585924;54;20037;31
2023/09/22 04:37:08;;;;;;;5.25;3.63;;;17.30;99.90;;;;;;2585692;54;20555;31
2023/09/22 04:39:41;;;;;;;8.85;3.88;;;17.30;99.90;;;;;;2585856;54;20850;31
2023/09/22 04:42:14;;;;;;;8.55;3.67;;;17.30;99.90;;;;;;2586040;54;20026;31
2023/09/22 04:44:50;;;;;;;5.10;3.30;;;17.30;99.90;;;;;;2604455;46;20921;31
2023/09/22 04:47:23;;;;;;;7.40;3.20;;;17.20;99.90;;;;;;2604483;46;20112;31
2023/09/22 04:49:57;;;;;;;6.55;3.10;;;17.30;99.90;;;;;;2584909;54;20551;31
2023/09/22 04:52:36;;;;;;;8.70;3.63;;;17.30;99.90;;;;;;2604216;46;20105;31
2023/09/22 04:55:17;;;;;;;8.20;4.50;;;17.30;99.90;;;;;;2584887;54;20046;31
2023/09/22 04:57:54;;;;;;;5.87;3.40;;;17.30;99.90;;;;;;2604104;46;20033;31
2023/09/22 05:00:33;;;;;;;13.10;3.85;;;17.30;99.90;;;;;;2585658;54;20034;31
2023/09/22 05:03:11;;;;;;;7.25;2.95;;;17.30;99.90;;;;;;2604388;47;20894;31
2023/09/22 05:05:46;;;;;;;4.70;3.55;;;17.40;99.90;;;;;;2585658;54;20148;31
2023/09/22 05:08:19;;;;;;;5.75;3.53;;;17.40;99.90;;;;;;2585743;54;20782;31
2023/09/22 05:10:52;;;;;;;8.88;4.15;;;17.40;99.90;;;;;;2683559;39;20468;31
2023/09/22 05:13:32;;;;;;;5.80;4.50;;;17.50;99.90;;;;;;2585724;54;20038;31
2023/09/22 05:16:13;;;;;;;8.25;4.10;;;17.60;99.90;;;;;;2585798;54;20031;31
2023/09/22 05:18:56;;;;;;;7.30;4.05;;;17.70;99.90;;;;;;2683653;39;20453;31
2023/09/22 05:21:31;;;;;;;8.95;3.95;;;17.70;99.90;;;;;;2586431;54;20097;31
2023/09/22 05:24:12;;;;;;;12.43;3.70;;;17.80;99.90;;;;;;2586491;54;20926;31
2023/09/22 05:26:45;;;;;;;6.75;3.47;;;17.80;99.90;;;;;;2586385;54;20033;31
2023/09/22 05:29:21;;;;;;;6.90;3.60;;;17.90;99.90;;;;;;2586233;54;21026;31
2023/09/22 05:32:00;;;;;;;6.07;3.60;;;18.00;99.90;;;;;;2586513;54;20161;31
2023/09/22 05:34:33;;;;;;;6.53;3.33;;;18.00;99.90;;;;;;2586554;54;20934;31
2023/09/22 05:37:08;;;;;;;5.50;3.10;;;18.00;99.90;;;;;;2684142;39;20457;31
2023/09/22 05:39:43;;;;;;;8.07;3.60;;;18.10;99.90;;;;;;2586528;54;21190;31
2023/09/22 05:42:15;;;;;;;4.85;3.35;;;18.10;99.90;;;;;;2586655;54;20943;31
2023/09/22 05:44:53;;;;;;;5.90;3.30;;;18.20;99.90;;;;;;2586449;54;20953;31
2023/09/22 05:47:34;;;;;;;8.27;3.27;;;18.20;99.90;;;;;;2604787;46;20050;31
2023/09/22 05:50:12;;;;;;;7.40;3.03;;;18.30;99.90;;;;;;2586427;54;20241;31
2023/09/22 05:52:47;;;;;;;6.60;2.90;;;18.40;99.90;;;;;;2585587;54;20046;31
2023/09/22 05:55:28;;;;;;;8.10;3.10;;;18.40;99.90;;;;;;2684122;39;20500;31
2023/09/22 05:58:05;;;;;;;7.75;3.30;;;18.50;99.90;;;;;;2586391;54;20079;31
2023/09/22 06:00:39;;;;;;;7.53;3.80;;;18.60;99.90;;;;;;2605280;46;20909;31
2023/09/22 06:03:20;;;;;;;8.37;2.93;;;18.70;99.90;;;;;;2585456;54;20112;31
2023/09/22 06:05:53;;;;;;;4.55;3.25;;;18.60;99.90;;;;;;2586428;54;20246;31
2023/09/22 06:08:30;;;;;;;6.53;2.87;;;18.70;99.90;;;;;;2586307;54;20026;31
2023/09/22 06:11:03;;;;;;;9.53;3.50;;;18.80;99.90;;;;;;2586404;54;20036;31
2023/09/22 06:13:40;;;;;;;14.07;3.00;;;18.80;99.90;;;;;;2586319;54;20308;31
2023/09/22 06:16:14;;;;;;;8.98;3.53;;;18.80;99.90;;;;;;2585355;54;20278;31
2023/09/22 06:18:55;;;;;;;4.65;2.75;;;18.90;99.90;;;;;;2586322;54;20957;31
2023/09/22 06:21:29;;;;;;;6.00;3.10;;;18.90;99.90;;;;;;2586419;54;20894;31
2023/09/22 06:24:10;;;;;;;6.20;2.70;;;18.90;99.90;;;;;;2604958;46;21266;31
2023/09/22 06:26:44;;;;;;;7.45;2.85;;;19.00;99.90;;;;;;2586320;54;20023;31
2023/09/22 06:29:20;;;;;;;9.33;3.20;;;19.20;99.90;;;;;;2604272;46;21029;31
2023/09/22 06:31:54;;;;;;;5.90;3.00;;;19.50;99.90;;;;;;2586367;54;20027;31
2023/09/22 06:34:34;;;;;;;9.07;2.70;;;19.60;99.90;;;;;;2586285;54;20763;31
2023/09/22 06:37:15;;;;;;;6.47;2.70;;;19.80;99.90;;;;;;2586442;54;20901;31
2023/09/22 06:39:50;;;;;;;7.25;3.00;;;19.90;99.90;;;;;;2586333;54;20959;31
2023/09/22 06:42:24;;;;;;;7.20;2.78;;;20.00;99.90;;;;;;2585836;54;21004;31
2023/09/22 06:45:00;;;;;;;5.90;2.75;;;20.00;99.90;;;;;;2586214;54;19941;31
2023/09/22 06:47:36;;;;;;;7.30;2.53;;;20.10;99.90;;;;;;2586099;54;20030;31
2023/09/22 06:50:15;;;;;;;8.18;3.28;;;20.20;99.90;;;;;;2586296;54;20110;31
2023/09/22 06:52:50;;;;;;;4.93;3.10;;;20.40;99.90;;;;;;2586250;54;20904;31
2023/09/22 06:55:27;;;;;;;4.68;2.42;;;20.50;99.90;;;;;;2604409;46;20037;31
2023/09/22 06:58:06;;;;;;;4.80;2.70;;;20.80;99.90;;;;;;2683962;39;22193;31
2023/09/22 07:00:41;;;;;;;8.00;2.95;;;21.00;99.90;;;;;;2604591;46;20949;31
2023/09/22 07:03:15;;;;;;;;;;;21.20;99.90;;;;;;2586658;54;20930;31
2023/09/22 07:05:54;;;;;;;9.15;2.85;;;21.40;99.90;;;;;;2585985;54;20860;31
2023/09/22 07:08:28;;;;;;;5.10;2.70;;;21.70;99.90;;;;;;2585186;54;20022;31
2023/09/22 07:11:07;;;;;;;10.63;2.40;;;21.90;99.90;;;;;;2586245;54;20849;31
2023/09/22 07:13:43;;;;;;;7.83;2.73;;;22.20;99.90;;;;;;2586435;54;20026;31
2023/09/22 07:16:16;;;;;;;7.22;2.90;;;22.50;99.90;;;;;;2586185;54;20045;31
2023/09/22 07:18:53;;;;;;;9.65;2.15;;;22.90;99.90;;;;;;2585649;54;20109;31
2023/09/22 07:21:32;;;;;;;6.13;2.15;;;23.10;99.90;;;;;;2586346;54;20105;31
2023/09/22 07:24:15;;;;;;;5.43;2.00;;;23.30;99.90;;;;;;2586395;54;20033;31
2023/09/22 07:26:50;;;;;;;5.72;2.17;;;23.50;99.90;;;;;;2586018;54;20022;31
2023/09/22 07:29:24;;;;;;;7.10;2.08;;;23.80;99.90;;;;;;2585939;54;20026;31
2023/09/22 07:31:59;;;;;;;3.30;1.77;;;24.10;99.90;;;;;;2585880;54;20786;31
2023/09/22 07:34:34;;;;;;;4.17;1.57;;;24.50;99.90;;;;;;2586092;54;20031;31
2023/09/22 07:37:11;;;;;;;6.03;1.90;;;24.80;99.90;;;;;;2604534;46;20110;31
2023/09/22 07:39:54;;;;;;;4.67;1.97;;;25.00;99.90;;;;;;2604073;46;20030;31
2023/09/22 07:42:31;;;;;;;4.67;1.77;;;25.10;99.90;;;;;;2604645;46;20898;31
2023/09/22 07:45:11;;;;;;;7.38;1.83;;;25.40;99.90;;;;;;2585947;54;20027;31
2023/09/22 07:47:45;;;;;;;6.63;2.03;;;25.50;99.90;;;;;;2586333;54;20748;31
2023/09/22 07:50:20;;;;;;;3.08;1.58;;;25.60;99.90;;;;;;2586002;54;20030;31
2023/09/22 07:52:59;;;;;;;;;;;25.70;99.90;;;;;;2586791;54;20888;31
2023/09/22 07:55:35;;;;;;;6.30;1.70;;;26.00;99.90;;;;;;2604836;46;19941;31
2023/09/22 07:58:10;;;;;;;4.72;1.73;;;26.40;99.90;;;;;;2604173;46;20072;31
2023/09/22 08:00:46;;;;;;;;;;;26.70;99.90;;;;;;2604590;46;20109;31
2023/09/22 08:03:25;;;;;;;5.32;1.33;;;26.90;99.90;;;;;;2604532;46;20009;31
2023/09/22 08:06:00;;;;;;;3.40;1.10;;;27.00;99.90;;;;;;2586143;54;20022;31
2023/09/22 08:08:39;;;;;;;3.35;1.10;;;26.80;99.90;;;;;;2604446;46;20891;31
2023/09/22 08:11:17;;;;;;;3.67;1.13;;;26.70;99.90;;;;;;2584450;54;20576;31
2023/09/22 08:13:52;;;;;;;3.60;1.27;;;26.60;99.90;;;;;;2604550;46;20038;31
2023/09/22 08:16:25;;;;;;;;;;;26.60;99.90;;;;;;2586217;54;20082;31
2023/09/22 08:18:59;;;;;;;2.45;1.40;;;26.60;99.90;;;;;;2604152;46;19934;31
2023/09/22 08:21:39;;;;;;;1.92;0.90;;;26.60;99.90;;;;;;2585740;54;20809;31
2023/09/22 08:24:16;;;;;;;2.95;1.40;;;26.70;99.90;;;;;;2586141;54;19934;31
2023/09/22 08:26:55;;;;;;;2.25;1.10;;;26.60;99.90;;;;;;2585982;54;20035;31
2023/09/22 08:29:39;;;;;;;3.30;1.00;;;26.70;99.90;;;;;;2604419;46;20960;31
2023/09/22 08:32:15;;;;;;;2.10;0.60;;;26.70;99.90;;;;;;2585808;54;20260;31
2023/09/22 08:34:52;;;;;;;4.00;1.13;;;26.50;99.90;;;;;;2585871;54;20057;31
2023/09/22 08:37:28;;;;;;;3.80;0.83;;;26.30;99.90;;;;;;2585919;54;20241;31
2023/09/22 08:40:11;;;;;;;2.15;1.10;;;26.00;99.90;;;;;;2585746;54;20132;31
2023/09/22 08:42:48;;;;;;;2.58;1.13;;;25.80;99.90;;;;;;2604513;46;20124;31
2023/09/22 08:45:24;;;;;;;4.90;1.00;;;25.60;99.90;;;;;;2604496;46;20049;31
2023/09/22 08:48:02;;;;;;;2.80;1.02;;;25.40;99.90;;;;;;2585643;54;20799;31
2023/09/22 08:50:38;;;;;;;1.20;0.80;;;25.10;99.90;;;;;;2586066;54;20854;31
2023/09/22 08:53:11;;;;;;;2.20;1.00;;;25.00;99.90;;;;;;2585303;54;20238;31
2023/09/22 08:55:52;;;;;;;2.20;1.05;;;24.80;99.90;;;;;;2585714;54;20787;31
2023/09/22 08:58:29;;;;;;;4.65;1.48;;;24.60;99.90;;;;;;2586109;54;20022;31
2023/09/22 09:01:06;;;;;;;3.40;1.00;;;24.50;99.90;;;;;;2585829;54;19966;31
2023/09/22 09:03:44;;;;;;;2.83;1.00;;;24.30;99.90;;;;;;2585735;54;20239;31
2023/09/22 09:06:20;;;;;;;3.90;1.15;;;24.20;99.90;;;;;;2585948;54;20925;31
2023/09/22 09:09:12;;;;;;;2.00;1.40;;;24.00;99.90;;;;;;2701381;39;21588;31
2023/09/22 09:12:08;;;;;;;6.53;2.40;;;24.00;99.90;;;;;;2585689;54;20030;31
2023/09/22 09:14:46;;;;;;;3.03;1.20;;;23.90;99.90;;;;;;2585743;54;20053;31
2023/09/22 09:17:23;;;;;;;4.90;1.15;;;23.90;99.90;;;;;;2604099;47;20776;31
2023/09/22 09:19:57;;;;;;;2.97;1.30;;;23.90;99.90;;;;;;2604617;47;20046;31
2023/09/22 09:22:35;;;;;;;3.37;1.33;;;23.90;99.90;;;;;;2603924;47;20034;31
2023/09/22 09:25:14;;;;;;;4.07;1.23;;;23.80;99.90;;;;;;2584821;54;20101;31
2023/09/22 09:27:59;;;;;;;2.30;1.40;;;23.80;99.90;;;;;;2604455;47;20247;31
2023/09/22 09:30:33;;;;;;;2.77;1.07;;;23.70;99.90;;;;;;2585178;54;20063;31
2023/09/22 09:33:12;;;;;;;2.13;1.35;;;23.60;99.90;;;;;;2585680;54;20026;31
2023/09/22 09:35:50;;;;;;;2.80;1.20;;;23.60;99.90;;;;;;2585481;54;20033;31
2023/09/22 09:38:27;;;;;;;2.07;1.27;;;23.50;99.90;;;;;;2585591;54;20089;31
2023/09/22 09:41:02;;;;;;;4.30;1.30;;;23.40;99.90;;;;;;2584734;54;20924;31
2023/09/22 09:43:39;;;;;;;0.90;0.80;;;23.30;99.90;;;;;;2585677;54;20057;31
2023/09/22 09:46:16;;;;;;;4.40;1.00;;;23.30;99.90;;;;;;2585635;54;20930;31
2023/09/22 09:48:51;;;;;;;4.95;1.35;;;23.30;99.90;;;;;;2584827;54;20019;31
2023/09/22 09:51:29;;;;;;;2.53;1.10;;;23.30;99.90;;;;;;2584859;54;20509;31
2023/09/22 09:54:08;;;;;;;1.02;0.73;;;23.30;99.90;;;;;;2683548;39;21381;31
2023/09/22 09:56:42;;;;;;;1.20;0.90;;;23.40;99.90;;;;;;2585501;54;20028;31
2023/09/22 09:59:20;;;;;;;3.92;0.70;;;23.40;99.90;;;;;;2585575;54;21006;31
2023/09/22 10:02:01;;;;;;;4.20;1.20;;;23.40;99.90;;;;;;2585201;54;20023;31
2023/09/22 10:04:39;;;;;;;4.95;0.70;;;23.40;99.90;;;;;;2603918;47;20027;31
2023/09/22 10:07:11;;;;;;;1.55;0.60;;;23.50;99.90;;;;;;2605159;46;20501;31
2023/09/22 10:09:47;;;;;;;2.07;0.97;;;23.50;99.90;;;;;;2586226;54;20102;31
2023/09/22 10:12:25;;;;;;;1.48;0.80;;;23.60;99.90;;;;;;2586366;54;21021;31
2023/09/22 10:15:05;;;;;;;2.85;0.80;;;23.60;99.90;;;;;;2586060;54;20905;31
2023/09/22 10:17:38;;;;;;;2.17;0.40;;;23.70;99.90;;;;;;2586305;54;20034;31
2023/09/22 10:20:19;;;;;;;1.47;0.50;;;23.80;99.90;;;;;;2586126;54;19934;31
2023/09/22 10:23:07;;;;;;;4.05;0.80;;;23.80;99.90;;;;;;2586334;54;20250;31
2023/09/22 10:25:43;;;;;;;0.75;0.40;;;23.90;99.90;;;;;;2586187;54;21215;31
2023/09/22 10:28:32;;;;;;;1.30;0.70;;;24.00;99.90;;;;;;2604676;46;20141;31
2023/09/22 10:31:13;;;;;;;2.35;0.40;;;24.10;99.90;;;;;;2604534;46;21100;31
2023/09/22 10:33:47;;;;;;;1.40;0.60;;;24.10;99.90;;;;;;2586567;54;20038;31
2023/09/22 10:36:50;;;;;;;0.70;0.55;;;24.20;99.90;;;;;;2586344;54;20707;31
2023/09/22 10:39:28;;;;;;;1.58;0.60;;;24.30;99.90;;;;;;2586457;54;20870;31
2023/09/22 10:42:05;;;;;;;2.37;0.80;;;24.30;99.90;;;;;;2585897;54;21277;31
2023/09/22 10:45:00;;;;;;;4.30;1.02;;;24.30;99.90;;;;;;2586602;54;20050;31
2023/09/22 10:48:01;;;;;;;1.47;0.53;;;24.40;99.90;;;;;;2604762;46;20863;31
2023/09/22 10:50:36;;;;;;;2.05;0.68;;;24.40;99.90;;;;;;2586302;54;21067;31
2023/09/22 10:53:18;;;;;;;1.40;0.88;;;24.40;99.90;;;;;;2585850;54;20048;31
2023/09/22 10:55:57;;;;;;;1.98;0.68;;;24.40;99.90;;;;;;2773322;31;20540;31
2023/09/22 10:58:34;;;;;;;;;;;24.30;99.90;;;;;;2586450;54;20995;31
2023/09/22 11:01:11;;;;;;;1.50;0.80;;;24.30;99.90;;;;;;2585992;54;19941;31
2023/09/22 11:03:53;;;;;;;1.65;0.80;;;24.20;99.90;;;;;;2586254;54;19943;31
2023/09/22 11:06:32;;;;;;;1.70;0.70;;;24.10;99.90;;;;;;2586113;54;20028;31
2023/09/22 11:09:11;;;;;;;4.88;0.90;;;24.10;99.90;;;;;;2586106;54;20238;31
2023/09/22 11:11:48;;;;;;;4.00;1.00;;;24.10;99.90;;;;;;2586163;54;20913;31
2023/09/22 11:14:23;;;;;;;3.92;0.95;;;24.10;99.90;;;;;;2604280;46;20116;31
2023/09/22 11:16:58;;;;;;;3.72;0.80;;;24.10;99.90;;;;;;2585519;54;20038;31
2023/09/22 11:19:38;;;;;;;2.07;1.00;;;24.10;99.90;;;;;;2586271;54;20053;31
2023/09/22 11:22:14;;;;;;;2.97;1.05;;;24.00;99.90;;;;;;2586179;54;21150;31
2023/09/22 11:24:50;;;;;;;1.45;0.80;;;24.00;99.90;;;;;;2594374;46;20026;31
2023/09/22 11:27:26;;;;;;;1.25;0.63;;;24.00;99.90;;;;;;2586401;54;20754;31
2023/09/22 11:30:19;;;;;;;3.58;1.10;;;23.90;99.90;;;;;;2586147;54;20811;31
2023/09/22 11:32:57;;;;;;;3.35;0.60;;;23.90;99.90;;;;;;2604185;46;20030;31
2023/09/22 11:36:10;;;;;;;2.95;0.80;;;23.80;99.90;;;;;;2585922;54;20097;31
2023/09/22 11:38:48;;;;;;;2.72;0.88;;;23.70;99.90;;;;;;2585965;54;20793;31
2023/09/22 11:41:23;;;;;;;2.20;0.93;;;23.70;99.90;;;;;;2585869;54;20793;31
2023/09/22 11:43:59;;;;;;;3.33;0.90;;;23.70;99.90;;;;;;2585799;54;20085;31
2023/09/22 11:46:38;;;;;;;1.50;0.90;;;23.70;99.90;;;;;;2586128;54;20860;31
2023/09/22 11:49:13;;;;;;;3.60;1.02;;;23.70;99.90;;;;;;2586291;54;20100;31
2023/09/22 11:51:50;;;;;;;2.85;1.38;;;23.60;99.90;;;;;;2585159;54;20048;31
2023/09/22 11:54:24;;;;;;;2.55;1.25;;;23.60;99.90;;;;;;2586067;54;20022;31
2023/09/22 11:57:03;;;;;;;1.58;0.90;;;23.70;99.90;;;;;;2595202;46;20747;31
2023/09/22 11:59:40;;;;;;;2.87;0.73;;;23.70;99.90;;;;;;2585928;54;20037;31
2023/09/22 12:02:17;;;;;;;2.10;0.85;;;23.80;99.90;;;;;;2586073;54;21170;31
2023/09/22 12:04:56;;;;;;;1.35;0.82;;;23.80;99.90;;;;;;2593233;46;20929;31
2023/09/22 12:07:35;;;;;;;2.80;1.00;;;23.80;99.90;;;;;;2585449;54;20759;31
2023/09/22 12:10:10;;;;;;;1.60;1.07;;;23.80;99.90;;;;;;2585165;54;20030;31
2023/09/22 12:12:49;;;;;;;1.50;0.65;;;23.80;99.90;;;;;;2586030;54;20027;31
2023/09/22 12:15:26;;;;;;;1.90;1.05;;;23.80;99.90;;;;;;2590873;46;20916;31
2023/09/22 12:17:58;;;;;;;1.15;0.65;;;23.80;99.90;;;;;;2586126;54;20942;31
2023/09/22 12:20:32;;;;;;;1.50;0.90;;;23.80;99.90;;;;;;2586258;54;20031;31
2023/09/22 12:23:15;;;;;;;1.83;0.70;;;23.80;99.90;;;;;;2585131;54;20022;31
2023/09/22 12:25:52;;;;;;;1.50;0.90;;;23.80;99.90;;;;;;2585999;54;20026;31
2023/09/22 12:28:27;;;;;;;7.15;1.55;;;23.90;99.90;;;;;;2586017;54;20787;31
2023/09/22 12:31:03;;;;;;;;;;;23.90;99.90;;;;;;2586314;54;20852;31
2023/09/22 12:33:41;;;;;;;2.53;0.87;;;23.80;99.90;;;;;;2586025;54;19939;31
2023/09/22 12:36:20;;;;;;;4.28;1.20;;;23.70;99.90;;;;;;2586006;54;20110;31
2023/09/22 12:39:05;;;;;;;2.72;1.13;;;23.60;99.90;;;;;;2683071;39;22367;31
2023/09/22 12:41:41;;;;;;;3.85;0.82;;;23.60;99.90;;;;;;2753683;31;21628;31
2023/09/22 12:44:18;;;;;;;3.22;0.98;;;23.60;99.90;;;;;;2682947;39;21593;31
2023/09/22 12:46:53;;;;;;;1.13;0.43;;;23.50;99.90;;;;;;2586206;54;20027;31
2023/09/22 12:49:30;;;;;;;2.42;1.00;;;23.40;99.90;;;;;;2585868;54;20965;31
2023/09/22 12:52:07;;;;;;;1.90;0.83;;;23.30;99.90;;;;;;2585732;54;20027;31
2023/09/22 12:54:43;;;;;;;3.13;0.93;;;23.30;99.90;;;;;;2585865;54;20054;31
2023/09/22 12:57:17;;;;;;;2.05;0.90;;;23.20;99.90;;;;;;2585863;54;20868;31
2023/09/22 12:59:55;;;;;;;1.80;0.63;;;23.10;99.90;;;;;;2586043;54;20969;31
2023/09/22 13:02:31;;;;;;;3.35;1.35;;;23.10;99.90;;;;;;2585797;54;20889;31
2023/09/22 13:05:11;;;;;;;8.23;1.17;;;23.00;99.90;;;;;;2585316;54;20030;31
2023/09/22 13:07:44;;;;;;;3.55;0.75;;;22.90;99.90;;;;;;2585804;54;20923;31
2023/09/22 13:10:19;;;;;;;5.43;1.02;;;22.90;99.90;;;;;;2585863;54;20133;31
2023/09/22 13:12:55;;;;;;;6.35;0.85;;;22.80;99.90;;;;;;2604705;47;20029;31
2023/09/22 13:15:30;;;;;;;;;;;22.80;99.90;;;;;;2586015;54;20812;31
2023/09/22 13:18:05;;;;;;;1.33;0.75;;;22.80;99.90;;;;;;2597235;47;19942;31
2023/09/22 13:20:42;;;;;;;3.17;1.42;;;22.70;99.90;;;;;;2698703;39;21538;31
2023/09/22 13:23:17;;;;;;;3.20;0.70;;;22.60;99.90;;;;;;2585745;54;21007;31
2023/09/22 13:25:57;;;;;;;1.00;0.85;;;22.60;99.90;;;;;;2585510;54;20057;31
2023/09/22 13:28:33;;;;;;;1.65;0.80;;;22.60;99.90;;;;;;2604236;47;20053;31
2023/09/22 13:31:12;;;;;;;2.38;0.85;;;22.50;99.90;;;;;;2585664;54;20188;31
2023/09/22 13:33:48;;;;;;;2.03;0.90;;;22.50;99.90;;;;;;2585946;54;20023;31
2023/09/22 13:36:21;;;;;;;3.10;0.70;;;22.50;99.90;;;;;;2585605;54;20964;31
2023/09/22 13:38:58;;;;;;;2.10;0.75;;;22.40;99.90;;;;;;2604325;47;20113;31
2023/09/22 13:41:39;;;;;;;2.80;0.95;;;22.40;99.90;;;;;;2595080;46;20877;31
2023/09/22 13:44:14;;;;;;;4.30;0.70;;;22.30;99.90;;;;;;2594308;46;20993;31
2023/09/22 13:46:51;;;;;;;2.30;0.60;;;22.30;99.90;;;;;;2604804;46;20212;31
2023/09/22 13:49:28;;;;;;;1.77;0.63;;;22.20;99.90;;;;;;2604823;46;20959;31
2023/09/22 13:52:06;;;;;;;1.90;0.80;;;22.20;99.90;;;;;;2586612;54;20241;31